Time;durP1;ratioP1;P1;durP2;ratioP2;P2;SDS_P1;SDS_P2;PMS_P1;PMS_P2;Temp;Humidity;BMP_temperature;BMP_pressure;BME280_temperature;BME280_humidity;BME280_pressure;Samples;Min_cycle;Max_cycle;Signal;HPM_P1;HPM_P2
2023/08/12 00:01:01;;;;;;;8.05;3.83;;;21.50;99.90;;;;;;4899829;29;20076;-80
2023/08/12 00:03:27;;;;;;;8.27;3.80;;;21.50;99.90;;;;;;4898595;29;20080;-79
2023/08/12 00:05:53;;;;;;;9.13;4.32;;;21.40;99.90;;;;;;4870505;29;20511;-80
2023/08/12 00:08:19;;;;;;;7.07;3.60;;;21.40;99.90;;;;;;4897762;29;20199;-77
2023/08/12 00:10:46;;;;;;;6.63;3.97;;;21.40;99.90;;;;;;4904569;29;20075;-81
2023/08/12 00:13:14;;;;;;;6.50;3.33;;;21.40;99.90;;;;;;4903593;29;20547;-79
2023/08/12 00:15:40;;;;;;;9.63;3.47;;;21.30;99.90;;;;;;4893098;29;20105;-79
2023/08/12 00:18:06;;;;;;;6.38;3.28;;;21.30;99.90;;;;;;4875946;29;20053;-81
2023/08/12 00:20:32;;;;;;;6.80;3.28;;;21.30;99.90;;;;;;4883680;29;20052;-80
2023/08/12 00:22:58;;;;;;;5.03;3.08;;;21.20;99.90;;;;;;4902964;29;20123;-81
2023/08/12 00:25:23;;;;;;;5.28;3.20;;;21.20;99.90;;;;;;4902036;29;20049;-80
2023/08/12 00:27:49;;;;;;;8.00;3.15;;;21.10;99.90;;;;;;4896989;29;20052;-80
2023/08/12 00:30:15;;;;;;;7.57;2.80;;;21.10;99.90;;;;;;4903202;29;20374;-80
2023/08/12 00:32:41;;;;;;;9.02;3.47;;;21.10;99.90;;;;;;4898355;29;20079;-80
2023/08/12 00:35:07;;;;;;;6.47;2.90;;;21.10;99.90;;;;;;4873025;29;20076;-81
2023/08/12 00:37:33;;;;;;;7.28;2.95;;;21.10;99.90;;;;;;4904286;29;20080;-81
2023/08/12 00:39:58;;;;;;;7.00;3.00;;;21.10;99.90;;;;;;4891523;29;20059;-82
2023/08/12 00:42:24;;;;;;;7.72;2.80;;;21.10;99.90;;;;;;4886724;29;20483;-79
2023/08/12 00:44:50;;;;;;;7.45;3.10;;;21.10;99.90;;;;;;4888435;29;20060;-79
2023/08/12 00:47:16;;;;;;;7.68;3.25;;;21.00;99.90;;;;;;4876484;29;20139;-80
2023/08/12 00:49:45;;;;;;;7.43;3.13;;;21.10;99.90;;;;;;4883809;29;20049;-79
2023/08/12 00:52:15;;;;;;;5.80;2.88;;;21.00;99.90;;;;;;4888534;29;20059;-79
2023/08/12 00:54:41;;;;;;;4.85;2.75;;;21.00;99.90;;;;;;4881510;29;20041;-82
2023/08/12 00:57:07;;;;;;;8.05;2.88;;;21.00;99.90;;;;;;4880609;29;20109;-81
2023/08/12 00:59:36;;;;;;;9.20;3.05;;;20.90;99.90;;;;;;4880462;29;20049;-81
2023/08/12 01:02:04;;;;;;;6.22;2.63;;;20.90;99.90;;;;;;4881002;29;20056;-80
2023/08/12 01:04:29;;;;;;;7.43;3.05;;;20.90;99.90;;;;;;4882205;29;20052;-80
2023/08/12 01:06:55;;;;;;;6.82;2.67;;;20.80;99.90;;;;;;4884646;29;20067;-80
2023/08/12 01:09:21;;;;;;;6.47;2.63;;;20.80;99.90;;;;;;4881829;29;20045;-79
2023/08/12 01:11:59;;;;;;;7.05;2.75;;;20.80;99.90;;;;;;4871175;29;20527;-80
2023/08/12 01:14:32;;;;;;;7.82;3.13;;;20.80;99.90;;;;;;4880429;29;20162;-81
2023/08/12 01:17:04;;;;;;;10.07;2.90;;;20.80;99.90;;;;;;4891421;29;20056;-80
2023/08/12 01:19:34;;;;;;;10.63;2.92;;;20.80;99.90;;;;;;4881609;29;20052;-80
2023/08/12 01:22:02;;;;;;;8.02;3.10;;;20.80;99.90;;;;;;4892367;29;20072;-81
2023/08/12 01:24:37;;;;;;;8.80;2.90;;;20.80;99.90;;;;;;4886440;29;20183;-78
2023/08/12 01:27:04;;;;;;;5.47;2.85;;;20.80;99.90;;;;;;4882186;29;20053;-81
2023/08/12 01:29:31;;;;;;;7.10;2.67;;;20.80;99.90;;;;;;4882686;29;20522;-77
2023/08/12 01:32:30;;;;;;;5.35;2.70;;;20.80;99.90;;;;;;4873772;29;20099;-81
2023/08/12 01:35:28;;;;;;;7.45;3.10;;;20.80;99.90;;;;;;4882870;29;20460;-81
2023/08/12 01:37:56;;;;;;;6.13;2.80;;;20.80;99.90;;;;;;4880016;29;20056;-81
2023/08/12 01:40:23;;;;;;;6.60;3.20;;;20.70;99.90;;;;;;4882205;29;20056;-79
2023/08/12 01:42:49;;;;;;;7.30;2.92;;;20.70;99.90;;;;;;4878563;29;20237;-81
2023/08/12 01:45:15;;;;;;;7.80;3.33;;;20.70;99.90;;;;;;4882369;29;20044;-80
2023/08/12 01:47:44;;;;;;;6.88;3.30;;;20.70;99.90;;;;;;4875645;29;20060;-81
2023/08/12 01:50:11;;;;;;;7.25;3.70;;;20.60;99.90;;;;;;4884872;29;20051;-80
2023/08/12 01:52:36;;;;;;;6.28;3.75;;;20.60;99.90;;;;;;4871993;29;20050;-79
2023/08/12 01:55:02;;;;;;;10.10;4.25;;;20.60;99.90;;;;;;4880949;29;20407;-81
2023/08/12 01:57:28;;;;;;;11.40;4.57;;;20.60;99.90;;;;;;4881785;29;20124;-81
2023/08/12 01:59:53;;;;;;;9.75;4.30;;;20.50;99.90;;;;;;4867687;29;20053;-81
2023/08/12 02:02:19;;;;;;;10.85;4.22;;;20.50;99.90;;;;;;4881547;29;20049;-81
2023/08/12 02:04:45;;;;;;;8.30;4.38;;;20.50;99.90;;;;;;4880782;29;20079;-80
2023/08/12 02:07:11;;;;;;;6.18;3.78;;;20.50;99.90;;;;;;4879740;29;20053;-81
2023/08/12 02:09:37;;;;;;;6.10;4.30;;;20.50;99.90;;;;;;4880779;29;20124;-78
2023/08/12 02:12:03;;;;;;;10.70;4.55;;;20.50;99.90;;;;;;4868428;29;20049;-80
2023/08/12 02:14:28;;;;;;;7.13;4.15;;;20.40;99.90;;;;;;4865980;29;20112;-82
2023/08/12 02:16:54;;;;;;;8.20;4.47;;;20.50;99.90;;;;;;4880666;29;20053;-80
2023/08/12 02:19:20;;;;;;;8.82;4.80;;;20.40;99.90;;;;;;4880600;29;20044;-79
2023/08/12 02:21:45;;;;;;;5.70;4.13;;;20.40;99.90;;;;;;4880589;29;20470;-79
2023/08/12 02:24:11;;;;;;;6.93;4.38;;;20.40;99.90;;;;;;4881123;29;20051;-80
2023/08/12 02:26:38;;;;;;;11.23;4.78;;;20.40;99.90;;;;;;4881329;29;20045;-77
2023/08/12 02:29:04;;;;;;;9.38;4.75;;;20.40;99.90;;;;;;4882166;29;20140;-80
2023/08/12 02:31:29;;;;;;;10.48;5.15;;;20.30;99.90;;;;;;4884963;29;20047;-80
2023/08/12 02:33:55;;;;;;;10.93;4.88;;;20.30;99.90;;;;;;4887792;29;20757;-79
2023/08/12 02:36:21;;;;;;;7.68;4.68;;;20.30;99.90;;;;;;4880428;29;20045;-81
2023/08/12 02:38:47;;;;;;;6.93;5.13;;;20.40;99.90;;;;;;4880055;29;20052;-81
2023/08/12 02:41:12;;;;;;;9.85;5.03;;;20.30;99.90;;;;;;4864719;29;20045;-80
2023/08/12 02:43:38;;;;;;;9.23;4.95;;;20.20;99.90;;;;;;4881775;29;20044;-78
2023/08/12 02:46:04;;;;;;;6.80;4.50;;;20.20;99.90;;;;;;4880493;29;20052;-81
2023/08/12 02:48:30;;;;;;;7.53;4.88;;;20.10;99.90;;;;;;4880048;29;20084;-81
2023/08/12 02:50:55;;;;;;;9.13;4.70;;;20.10;99.90;;;;;;4864256;29;20135;-80
2023/08/12 02:53:21;;;;;;;9.05;5.00;;;20.10;99.90;;;;;;4880829;29;20049;-80
2023/08/12 02:55:47;;;;;;;8.40;4.43;;;20.10;99.90;;;;;;4879225;29;20491;-80
2023/08/12 02:58:12;;;;;;;10.32;5.40;;;20.10;99.90;;;;;;4879147;29;20045;-81
2023/08/12 03:00:43;;;;;;;9.80;5.80;;;20.10;99.90;;;;;;4864490;29;20077;-80
2023/08/12 03:03:09;;;;;;;11.10;5.75;;;20.10;99.90;;;;;;4866075;29;20056;-81
2023/08/12 03:05:35;;;;;;;9.82;5.88;;;20.00;99.90;;;;;;4881397;29;20052;-80
2023/08/12 03:08:03;;;;;;;9.88;5.78;;;20.00;99.90;;;;;;4879807;29;20623;-80
2023/08/12 03:10:30;;;;;;;8.52;5.63;;;20.00;99.90;;;;;;4879610;29;20062;-81
2023/08/12 03:12:55;;;;;;;9.25;5.10;;;20.00;99.90;;;;;;4878108;29;20045;-80
2023/08/12 03:15:21;;;;;;;9.40;5.47;;;20.00;99.90;;;;;;4881441;29;20053;-80
2023/08/12 03:17:47;;;;;;;8.05;5.95;;;20.00;99.90;;;;;;4862938;29;20044;-80
2023/08/12 03:20:12;;;;;;;11.57;5.82;;;20.00;99.90;;;;;;4880466;29;20055;-79
2023/08/12 03:22:40;;;;;;;10.80;5.75;;;20.00;99.90;;;;;;4864411;29;20412;-82
2023/08/12 03:25:06;;;;;;;7.65;5.78;;;20.00;99.90;;;;;;4882372;29;20056;-80
2023/08/12 03:27:31;;;;;;;10.18;5.63;;;20.00;99.90;;;;;;4882645;29;20060;-80
2023/08/12 03:29:57;;;;;;;10.80;6.38;;;20.00;99.90;;;;;;4890307;29;20053;-80
2023/08/12 03:32:25;;;;;;;8.63;6.05;;;20.00;99.90;;;;;;4877725;29;20055;-80
2023/08/12 03:34:50;;;;;;;9.50;6.22;;;19.90;99.90;;;;;;4862951;29;20051;-80
2023/08/12 03:37:16;;;;;;;11.88;6.50;;;19.90;99.90;;;;;;4878702;29;20128;-81
2023/08/12 03:39:42;;;;;;;9.57;6.60;;;19.90;99.90;;;;;;4878146;29;20045;-81
2023/08/12 03:42:07;;;;;;;10.43;6.88;;;19.90;99.90;;;;;;4879132;29;20048;-81
2023/08/12 03:44:33;;;;;;;10.45;7.03;;;19.90;99.90;;;;;;4863514;29;20411;-81
2023/08/12 03:46:59;;;;;;;10.00;6.93;;;19.90;99.90;;;;;;4882092;29;20503;-79
2023/08/12 03:49:25;;;;;;;10.80;6.85;;;19.90;99.90;;;;;;4847617;29;20052;-81
2023/08/12 03:51:50;;;;;;;12.35;7.30;;;20.00;99.90;;;;;;4879074;29;20045;-79
2023/08/12 03:54:16;;;;;;;10.13;7.28;;;19.90;99.90;;;;;;4877710;29;20407;-81
2023/08/12 03:56:42;;;;;;;12.57;7.18;;;19.90;99.90;;;;;;4879585;29;20140;-80
2023/08/12 03:59:07;;;;;;;13.32;7.35;;;19.90;99.90;;;;;;4884572;29;20041;-81
2023/08/12 04:01:33;;;;;;;12.07;7.13;;;19.90;99.90;;;;;;4878486;29;20060;-81
2023/08/12 04:03:59;;;;;;;10.93;6.85;;;19.90;99.90;;;;;;4877103;29;20136;-81
2023/08/12 04:06:24;;;;;;;12.25;7.20;;;19.90;99.90;;;;;;4880947;29;20055;-80
2023/08/12 04:08:50;;;;;;;11.77;7.60;;;19.90;99.90;;;;;;4880437;29;20045;-79
2023/08/12 04:11:16;;;;;;;10.73;7.10;;;19.90;99.90;;;;;;4878519;29;20049;-80
2023/08/12 04:13:42;;;;;;;12.98;7.60;;;19.90;99.90;;;;;;4878505;29;20551;-80
2023/08/12 04:16:07;;;;;;;12.25;7.47;;;19.90;99.90;;;;;;4877226;29;20452;-81
2023/08/12 04:18:33;;;;;;;10.60;7.60;;;19.80;99.90;;;;;;4864309;29;20063;-80
2023/08/12 04:20:59;;;;;;;12.13;7.63;;;19.90;99.90;;;;;;4846961;29;20060;-80
2023/08/12 04:23:24;;;;;;;12.40;7.40;;;19.90;99.90;;;;;;4878109;29;20045;-80
2023/08/12 04:25:54;;;;;;;12.10;7.78;;;19.80;99.90;;;;;;4877169;29;20057;-77
2023/08/12 04:28:19;;;;;;;10.73;7.50;;;19.80;99.90;;;;;;4888486;29;20302;-81
2023/08/12 04:30:47;;;;;;;13.05;7.85;;;19.90;99.90;;;;;;4880437;29;20545;-80
2023/08/12 04:33:14;;;;;;;13.65;8.15;;;19.90;99.90;;;;;;4882819;29;20080;-80
2023/08/12 04:35:40;;;;;;;14.25;8.45;;;19.90;99.90;;;;;;4883610;29;20075;-80
2023/08/12 04:38:06;;;;;;;14.18;8.00;;;19.90;99.90;;;;;;4869801;29;20144;-80
2023/08/12 04:40:32;;;;;;;14.63;8.40;;;19.90;99.90;;;;;;4873532;29;20102;-81
2023/08/12 04:43:01;;;;;;;15.30;8.07;;;19.90;99.90;;;;;;4880122;29;20127;-80
2023/08/12 04:45:27;;;;;;;12.13;7.85;;;19.90;99.90;;;;;;4851038;29;20128;-81
2023/08/12 04:47:53;;;;;;;12.63;8.25;;;19.90;99.90;;;;;;4882824;29;20061;-77
2023/08/12 04:50:19;;;;;;;10.60;7.97;;;19.90;99.90;;;;;;4873226;29;20155;-81
2023/08/12 04:52:46;;;;;;;11.48;8.65;;;19.90;99.90;;;;;;4866840;29;20049;-81
2023/08/12 04:55:12;;;;;;;13.77;7.45;;;19.90;99.90;;;;;;4880945;29;20051;-81
2023/08/12 04:57:38;;;;;;;12.60;8.10;;;19.90;99.90;;;;;;4881808;29;20049;-81
2023/08/12 05:00:08;;;;;;;13.82;7.95;;;19.90;99.90;;;;;;4864956;29;20045;-80
2023/08/12 05:02:34;;;;;;;13.23;8.00;;;20.00;99.90;;;;;;4865085;29;20492;-81
2023/08/12 05:05:00;;;;;;;12.82;7.47;;;20.00;99.90;;;;;;4864952;29;20107;-80
2023/08/12 05:07:27;;;;;;;13.73;7.63;;;20.00;99.90;;;;;;4881562;29;20048;-82
2023/08/12 05:09:53;;;;;;;13.90;7.40;;;20.00;99.90;;;;;;4883107;29;20048;-81
2023/08/12 05:12:18;;;;;;;15.50;7.47;;;20.00;99.90;;;;;;4884011;29;20096;-81
2023/08/12 05:14:44;;;;;;;13.07;7.72;;;20.00;99.90;;;;;;4881929;29;20087;-81
2023/08/12 05:17:10;;;;;;;11.77;7.07;;;20.10;99.90;;;;;;4880204;29;20084;-81
2023/08/12 05:19:36;;;;;;;10.60;6.93;;;20.10;99.90;;;;;;4880827;29;20045;-81
2023/08/12 05:22:02;;;;;;;9.43;6.88;;;20.10;99.90;;;;;;4883417;29;20140;-79
2023/08/12 05:24:27;;;;;;;12.27;7.55;;;20.10;99.90;;;;;;4865244;29;20101;-80
2023/08/12 05:26:53;;;;;;;11.98;6.60;;;20.10;99.90;;;;;;4883746;29;20080;-78
2023/08/12 05:29:19;;;;;;;9.55;6.78;;;20.10;99.90;;;;;;4895848;29;20047;-80
2023/08/12 05:31:45;;;;;;;11.85;6.75;;;20.20;99.90;;;;;;4883627;29;20045;-80
2023/08/12 05:34:10;;;;;;;12.40;6.80;;;20.30;99.90;;;;;;4895471;29;20075;-79
2023/08/12 05:36:36;;;;;;;9.43;6.88;;;20.30;99.90;;;;;;4882161;29;20123;-80
2023/08/12 05:39:03;;;;;;;11.05;6.57;;;20.40;99.90;;;;;;4881656;29;20049;-79
2023/08/12 05:41:29;;;;;;;10.48;6.32;;;20.40;99.90;;;;;;4880408;29;20053;-80
2023/08/12 05:43:54;;;;;;;9.02;6.47;;;20.50;99.90;;;;;;4883654;29;20349;-80
2023/08/12 05:46:20;;;;;;;13.07;6.53;;;20.50;99.90;;;;;;4880129;29;20127;-81
2023/08/12 05:48:46;;;;;;;13.07;6.78;;;20.60;99.90;;;;;;4889873;29;20563;-80
2023/08/12 05:51:12;;;;;;;9.38;6.30;;;20.60;99.90;;;;;;4882113;29;20049;-80
2023/08/12 05:53:38;;;;;;;9.98;6.13;;;20.60;99.90;;;;;;4866073;29;20479;-81
2023/08/12 05:56:04;;;;;;;12.77;6.65;;;20.70;99.90;;;;;;4880993;29;20045;-78
2023/08/12 05:58:29;;;;;;;12.20;6.88;;;20.70;99.90;;;;;;4880770;29;20144;-81
2023/08/12 06:00:55;;;;;;;12.90;6.45;;;20.70;99.90;;;;;;4865025;29;20115;-80
2023/08/12 06:03:21;;;;;;;11.93;7.20;;;20.70;99.90;;;;;;4880209;29;20136;-80
2023/08/12 06:05:47;;;;;;;12.93;7.28;;;20.70;99.90;;;;;;4881366;29;20076;-80
2023/08/12 06:08:14;;;;;;;10.80;6.93;;;20.70;99.90;;;;;;4885543;29;20083;-79
2023/08/12 06:10:39;;;;;;;11.27;6.85;;;20.80;99.90;;;;;;4886918;29;20131;-81
2023/08/12 06:13:05;;;;;;;13.10;6.95;;;20.80;99.90;;;;;;4880746;29;20537;-78
2023/08/12 06:15:32;;;;;;;14.13;7.07;;;20.90;99.90;;;;;;4864909;29;20131;-79
2023/08/12 06:18:02;;;;;;;12.25;6.78;;;20.90;99.90;;;;;;4885461;29;20063;-80
2023/08/12 06:20:28;;;;;;;13.18;7.40;;;21.00;99.90;;;;;;4887406;29;20045;-80
2023/08/12 06:22:53;;;;;;;12.55;7.72;;;21.00;99.90;;;;;;4882064;29;20100;-80
2023/08/12 06:25:20;;;;;;;11.05;6.80;;;21.10;99.90;;;;;;4879514;29;20044;-80
2023/08/12 06:27:47;;;;;;;12.50;7.72;;;21.10;99.90;;;;;;4879957;29;20055;-80
2023/08/12 06:30:13;;;;;;;12.30;7.47;;;21.10;99.90;;;;;;4879019;29;20048;-81
2023/08/12 06:32:40;;;;;;;16.35;8.05;;;21.10;99.90;;;;;;4879518;29;20132;-80
2023/08/12 06:35:06;;;;;;;12.90;7.10;;;21.10;99.90;;;;;;4887997;29;20048;-81
2023/08/12 06:37:32;;;;;;;14.98;7.95;;;21.10;99.90;;;;;;4883360;29;20084;-79
2023/08/12 06:39:57;;;;;;;15.30;7.53;;;21.10;99.90;;;;;;4863083;29;20083;-81
2023/08/12 06:42:23;;;;;;;10.98;8.00;;;21.10;99.90;;;;;;4878629;29;20068;-80
2023/08/12 06:44:57;;;;;;;14.63;8.02;;;21.10;99.90;;;;;;4880379;29;20439;-78
2023/08/12 06:47:23;;;;;;;13.40;7.47;;;21.10;99.90;;;;;;4885869;29;20209;-81
2023/08/12 06:49:49;;;;;;;16.42;8.70;;;21.00;99.90;;;;;;4880364;29;20136;-80
2023/08/12 06:52:16;;;;;;;12.52;7.93;;;21.10;99.90;;;;;;4879561;29;20045;-80
2023/08/12 06:54:41;;;;;;;13.98;8.20;;;21.20;99.90;;;;;;4877970;29;20109;-80
2023/08/12 06:57:07;;;;;;;11.85;7.35;;;21.20;99.90;;;;;;4879384;29;20151;-80
2023/08/12 06:59:33;;;;;;;15.02;7.93;;;21.20;99.90;;;;;;4878942;29;20495;-81
2023/08/12 07:01:58;;;;;;;16.42;8.85;;;21.20;99.90;;;;;;4864779;29;20061;-80
2023/08/12 07:04:25;;;;;;;15.50;9.20;;;21.20;99.90;;;;;;4879934;29;20045;-80
2023/08/12 07:06:51;;;;;;;15.25;8.70;;;21.20;99.90;;;;;;4880411;29;20060;-79
2023/08/12 07:09:17;;;;;;;14.02;8.52;;;21.10;99.90;;;;;;4880357;29;20057;-80
2023/08/12 07:11:42;;;;;;;14.38;8.68;;;21.10;99.90;;;;;;4880350;29;20045;-79
2023/08/12 07:14:08;;;;;;;14.25;9.02;;;21.10;99.90;;;;;;4863127;29;20123;-80
2023/08/12 07:16:34;;;;;;;19.27;9.18;;;21.10;99.90;;;;;;4864464;29;20057;-81
2023/08/12 07:19:00;;;;;;;15.45;8.90;;;21.00;99.90;;;;;;4879206;29;20132;-81
2023/08/12 07:21:25;;;;;;;13.55;8.75;;;21.00;99.90;;;;;;4878643;29;20133;-81
2023/08/12 07:23:52;;;;;;;14.32;9.25;;;21.00;99.90;;;;;;4884394;29;20055;-79
2023/08/12 07:26:18;;;;;;;17.33;8.88;;;21.00;99.90;;;;;;4878596;29;20056;-79
2023/08/12 07:28:43;;;;;;;16.20;9.18;;;21.00;99.90;;;;;;4849251;29;20127;-81
2023/08/12 07:31:09;;;;;;;15.60;9.75;;;21.00;99.90;;;;;;4879912;29;20508;-79
2023/08/12 07:33:35;;;;;;;15.48;10.10;;;21.10;99.90;;;;;;4879232;29;20040;-80
2023/08/12 07:36:02;;;;;;;17.70;9.77;;;21.10;99.90;;;;;;4882304;29;20045;-80
2023/08/12 07:38:27;;;;;;;13.93;9.30;;;21.10;99.90;;;;;;4885499;29;20493;-80
2023/08/12 07:40:54;;;;;;;18.48;9.55;;;21.20;99.90;;;;;;4879235;29;20128;-80
2023/08/12 07:43:20;;;;;;;15.57;10.38;;;21.10;99.90;;;;;;4881246;29;20093;-80
2023/08/12 07:45:50;;;;;;;14.70;9.48;;;21.20;99.90;;;;;;4861981;29;20083;-81
2023/08/12 07:48:15;;;;;;;14.88;10.38;;;21.20;99.90;;;;;;4895238;29;20060;-77
2023/08/12 07:50:41;;;;;;;17.70;10.45;;;21.20;99.90;;;;;;4886352;29;20403;-81
2023/08/12 07:53:07;;;;;;;14.48;10.68;;;21.20;99.90;;;;;;4877554;29;20558;-80
2023/08/12 07:55:34;;;;;;;15.10;11.02;;;21.30;99.90;;;;;;4880016;29;20402;-81
2023/08/12 07:58:00;;;;;;;17.38;11.30;;;21.30;99.90;;;;;;4881000;29;20049;-81
2023/08/12 08:00:26;;;;;;;17.17;10.70;;;21.20;99.90;;;;;;4880175;29;20132;-80
2023/08/12 08:02:51;;;;;;;17.02;11.48;;;21.20;99.90;;;;;;4888497;29;20124;-79
2023/08/12 08:05:17;;;;;;;18.92;12.15;;;21.30;99.90;;;;;;4850922;29;20053;-80
2023/08/12 08:07:43;;;;;;;19.23;11.23;;;21.20;99.90;;;;;;4882648;29;20066;-81
2023/08/12 08:10:09;;;;;;;15.70;10.40;;;21.20;99.90;;;;;;4867605;29;20053;-80
2023/08/12 08:12:35;;;;;;;18.83;12.02;;;21.30;99.90;;;;;;4884061;29;20083;-81
2023/08/12 08:15:00;;;;;;;19.20;11.82;;;21.20;99.90;;;;;;4884138;29;20077;-81
2023/08/12 08:17:26;;;;;;;18.83;11.48;;;21.20;99.90;;;;;;4884024;29;20132;-81
2023/08/12 08:19:52;;;;;;;19.80;11.95;;;21.20;99.90;;;;;;4884989;29;20045;-78
2023/08/12 08:22:18;;;;;;;18.95;12.13;;;21.20;99.90;;;;;;4873052;29;20050;-80
2023/08/12 08:24:43;;;;;;;21.35;12.40;;;21.30;99.90;;;;;;4890419;29;20044;-81
2023/08/12 08:27:09;;;;;;;20.70;12.55;;;21.20;99.90;;;;;;4897919;29;20044;-80
2023/08/12 08:29:35;;;;;;;19.23;13.02;;;21.20;99.90;;;;;;4881869;29;20120;-82
2023/08/12 08:32:00;;;;;;;20.48;12.45;;;21.20;99.90;;;;;;4881299;29;20056;-81
2023/08/12 08:34:26;;;;;;;19.40;12.45;;;21.30;99.90;;;;;;4866903;29;20053;-80
2023/08/12 08:36:52;;;;;;;17.80;11.68;;;21.20;99.90;;;;;;4882641;29;20045;-80
2023/08/12 08:39:18;;;;;;;20.17;12.27;;;21.30;99.90;;;;;;4888798;29;20055;-81
2023/08/12 08:41:48;;;;;;;21.92;12.25;;;21.30;99.90;;;;;;4880099;29;20117;-80
2023/08/12 08:44:15;;;;;;;18.63;12.40;;;21.40;99.90;;;;;;4880855;29;20184;-79
2023/08/12 08:46:43;;;;;;;20.50;12.77;;;21.40;99.90;;;;;;4881870;29;20097;-83
2023/08/12 08:49:10;;;;;;;23.02;12.82;;;21.40;99.90;;;;;;4882939;29;20064;-80
2023/08/12 08:51:36;;;;;;;16.73;11.90;;;21.40;99.90;;;;;;4883450;29;20105;-81
2023/08/12 08:54:06;;;;;;;21.92;12.18;;;21.40;99.90;;;;;;4877974;29;20056;-80
2023/08/12 08:56:34;;;;;;;17.27;13.38;;;21.40;99.90;;;;;;4868315;29;20126;-80
2023/08/12 08:59:01;;;;;;;19.00;12.38;;;21.40;99.90;;;;;;4866081;29;20044;-81
2023/08/12 09:01:28;;;;;;;18.17;12.93;;;21.40;99.90;;;;;;4884228;29;20049;-77
2023/08/12 09:03:55;;;;;;;22.83;13.05;;;21.30;99.90;;;;;;4884039;29;20041;-80
2023/08/12 09:06:22;;;;;;;22.73;13.10;;;21.30;99.90;;;;;;4869484;29;20057;-84
2023/08/12 09:08:50;;;;;;;22.80;13.68;;;21.30;99.90;;;;;;4880053;29;20041;-83
2023/08/12 09:11:17;;;;;;;20.63;14.30;;;21.30;99.90;;;;;;4881958;29;20468;-83
2023/08/12 09:13:43;;;;;;;17.75;13.32;;;21.20;99.90;;;;;;4864625;29;20049;-83
2023/08/12 09:16:09;;;;;;;21.60;14.38;;;21.20;99.90;;;;;;4880407;29;20083;-84
2023/08/12 09:18:35;;;;;;;23.42;14.93;;;21.10;99.90;;;;;;4881938;29;20052;-82
2023/08/12 09:21:02;;;;;;;24.45;15.68;;;21.10;99.90;;;;;;4883041;29;20045;-84
2023/08/12 09:23:28;;;;;;;31.05;16.20;;;21.00;99.90;;;;;;4884732;29;20388;-74
2023/08/12 09:25:54;;;;;;;29.23;16.20;;;21.00;99.90;;;;;;4883630;29;20048;-86
2023/08/12 09:28:20;;;;;;;33.88;18.08;;;21.00;99.90;;;;;;4883094;29;20053;-84
2023/08/12 09:30:52;;;;;;;30.40;16.80;;;20.90;99.90;;;;;;4881223;29;20452;-87
2023/08/12 09:33:26;;;;;;;32.75;18.58;;;20.90;99.90;;;;;;4883135;29;20568;-88
2023/08/12 09:35:52;;;;;;;29.95;18.25;;;20.90;99.90;;;;;;4884176;29;20057;-92
2023/08/12 09:38:17;;;;;;;30.17;17.77;;;20.90;99.90;;;;;;4876373;29;20048;-89
2023/08/12 09:40:46;;;;;;;27.48;16.98;;;20.80;99.90;;;;;;4856884;29;20049;-87
2023/08/12 09:43:12;;;;;;;24.80;17.50;;;20.80;99.90;;;;;;4866740;29;20076;-88
2023/08/12 09:45:37;;;;;;;23.63;17.38;;;20.90;99.90;;;;;;4872595;29;20103;-86
2023/08/12 09:48:03;;;;;;;25.50;17.30;;;20.90;99.90;;;;;;4879222;29;20085;-84
2023/08/12 09:50:29;;;;;;;24.52;17.63;;;20.90;99.90;;;;;;4865441;29;20129;-85
2023/08/12 09:52:56;;;;;;;24.95;17.40;;;20.90;99.90;;;;;;4849528;29;20404;-88
2023/08/12 09:55:23;;;;;;;26.60;17.63;;;21.00;99.90;;;;;;4885078;29;20049;-89
2023/08/12 09:57:54;;;;;;;23.13;17.73;;;21.00;99.90;;;;;;4884488;29;20053;-92
2023/08/12 10:00:21;;;;;;;25.70;18.20;;;21.00;99.90;;;;;;4882883;29;20049;-89
2023/08/12 10:02:54;;;;;;;28.20;17.65;;;21.00;99.90;;;;;;4882552;29;20057;-86
2023/08/12 10:05:30;;;;;;;24.77;18.15;;;21.00;99.90;;;;;;4865658;29;20060;-85
2023/08/12 10:07:58;;;;;;;25.65;16.33;;;21.00;99.90;;;;;;4882261;29;20175;-83
2023/08/12 10:10:25;;;;;;;23.75;17.45;;;21.00;99.90;;;;;;4851587;29;20052;-86
2023/08/12 10:12:51;;;;;;;25.00;17.42;;;21.10;99.90;;;;;;4866539;29;20049;-88
2023/08/12 10:15:18;;;;;;;24.27;17.10;;;21.10;99.90;;;;;;4852361;29;20131;-86
2023/08/12 10:17:45;;;;;;;27.25;17.40;;;21.00;99.90;;;;;;4878358;29;20045;-85
2023/08/12 10:20:21;;;;;;;24.73;17.25;;;21.10;99.90;;;;;;4866377;29;20064;-85
2023/08/12 10:22:47;;;;;;;25.55;17.85;;;21.10;99.90;;;;;;4880263;29;20053;-83
2023/08/12 10:25:15;;;;;;;20.40;15.77;;;21.10;99.90;;;;;;4864799;29;20514;-84
2023/08/12 10:27:41;;;;;;;20.45;16.25;;;21.10;99.90;;;;;;4877661;29;20053;-85
2023/08/12 10:30:07;;;;;;;25.42;16.60;;;21.10;99.90;;;;;;4891851;29;20053;-89
2023/08/12 10:32:34;;;;;;;21.60;15.65;;;21.10;99.90;;;;;;4889522;29;20508;-92
2023/08/12 10:35:00;;;;;;;16.65;14.73;;;21.10;99.90;;;;;;4886731;29;20045;-91
2023/08/12 10:37:27;;;;;;;18.77;14.85;;;21.10;99.90;;;;;;4851614;29;20049;-85
2023/08/12 10:39:53;;;;;;;20.80;14.43;;;21.10;99.90;;;;;;4865422;29;20087;-90
2023/08/12 10:42:42;;;;;;;20.20;13.52;;;21.10;99.90;;;;;;4864604;29;20109;-87
2023/08/12 10:45:09;;;;;;;16.23;12.75;;;21.10;99.90;;;;;;4860502;29;20063;-87
2023/08/12 10:47:44;;;;;;;14.80;11.18;;;21.10;99.90;;;;;;4878004;29;20071;-86
2023/08/12 10:50:20;;;;;;;11.65;9.65;;;21.10;99.90;;;;;;4879466;29;20526;-88
2023/08/12 10:52:47;;;;;;;13.27;9.65;;;21.10;99.90;;;;;;4910188;29;20407;-89
2023/08/12 10:55:23;;;;;;;10.10;8.27;;;21.10;99.90;;;;;;4866900;29;20057;-90
2023/08/12 10:57:51;;;;;;;11.88;8.02;;;21.00;99.90;;;;;;4883106;29;20426;-88
2023/08/12 11:00:21;;;;;;;17.52;9.27;;;21.00;99.90;;;;;;4877967;29;20104;-86
2023/08/12 11:02:52;;;;;;;13.32;8.13;;;20.90;99.90;;;;;;4877600;29;20377;-82
2023/08/12 11:05:22;;;;;;;7.63;4.93;;;20.90;99.90;;;;;;4847499;29;20135;-86
2023/08/12 11:07:56;;;;;;;9.13;5.10;;;20.80;99.90;;;;;;4863673;29;20351;-86
2023/08/12 11:10:26;;;;;;;7.05;3.65;;;20.80;99.90;;;;;;4868955;29;20052;-88
2023/08/12 11:12:52;;;;;;;4.57;3.33;;;20.70;99.90;;;;;;4888947;29;20068;-88
2023/08/12 11:15:47;;;;;;;6.65;4.00;;;20.70;99.90;;;;;;4868588;29;20044;-88
2023/08/12 11:18:18;;;;;;;7.20;3.55;;;20.70;99.90;;;;;;4861997;29;20060;-89
2023/08/12 11:20:44;;;;;;;6.38;3.75;;;20.60;99.90;;;;;;4877707;29;20377;-80
2023/08/12 11:23:10;;;;;;;5.07;3.80;;;20.60;99.90;;;;;;4881249;29;20056;-88
2023/08/12 11:25:38;;;;;;;5.10;3.60;;;20.60;99.90;;;;;;4881469;29;20049;-88
2023/08/12 11:28:05;;;;;;;6.57;3.55;;;20.70;99.90;;;;;;4862610;29;20053;-84
2023/08/12 11:30:31;;;;;;;6.65;3.30;;;20.60;99.90;;;;;;4832097;29;20131;-83
2023/08/12 11:32:58;;;;;;;5.38;3.42;;;20.70;99.90;;;;;;4878248;29;20526;-82
2023/08/12 11:35:25;;;;;;;5.35;3.40;;;20.70;99.90;;;;;;4877781;29;20073;-81
2023/08/12 11:37:56;;;;;;;5.45;3.50;;;20.80;99.90;;;;;;4861195;29;20045;-81
2023/08/12 11:40:23;;;;;;;7.88;4.10;;;20.90;99.90;;;;;;4887326;29;20127;-86
2023/08/12 11:42:50;;;;;;;7.20;3.53;;;20.90;99.90;;;;;;4865990;29;20049;-81
2023/08/12 11:45:19;;;;;;;7.38;3.20;;;21.00;99.90;;;;;;4864651;29;20060;-86
2023/08/12 11:47:52;;;;;;;5.07;2.90;;;21.00;99.90;;;;;;4862849;29;20088;-85
2023/08/12 11:50:19;;;;;;;5.05;2.92;;;21.10;99.90;;;;;;4865593;29;20044;-83
2023/08/12 11:52:46;;;;;;;4.38;2.72;;;21.10;99.90;;;;;;4864056;29;20097;-85
2023/08/12 11:55:12;;;;;;;3.40;2.33;;;21.10;99.90;;;;;;4879933;29;20081;-87
2023/08/12 11:57:40;;;;;;;3.67;2.40;;;21.10;99.90;;;;;;4881229;29;20148;-88
2023/08/12 12:00:13;;;;;;;4.68;2.47;;;21.10;99.90;;;;;;4848306;29;20136;-83
2023/08/12 12:02:49;;;;;;;7.80;3.45;;;21.10;99.90;;;;;;4878622;29;20588;-80
2023/08/12 12:05:16;;;;;;;4.82;2.90;;;20.90;99.90;;;;;;4862223;29;20057;-83
2023/08/12 12:07:43;;;;;;;7.07;3.28;;;20.60;99.90;;;;;;4878281;29;20041;-84
2023/08/12 12:10:27;;;;;;;6.50;3.83;;;20.30;99.90;;;;;;4878617;29;20049;-84
2023/08/12 12:12:54;;;;;;;7.43;3.30;;;20.10;99.90;;;;;;4878078;29;20105;-81
2023/08/12 12:15:20;;;;;;;5.78;3.60;;;20.00;99.90;;;;;;4879968;29;20045;-84
2023/08/12 12:17:47;;;;;;;4.88;2.92;;;19.80;99.90;;;;;;4863864;29;20070;-87
2023/08/12 12:20:14;;;;;;;8.52;2.80;;;19.60;99.90;;;;;;4862828;29;20859;-87
2023/08/12 12:22:43;;;;;;;5.80;2.53;;;19.50;99.90;;;;;;4886547;29;20060;-87
2023/08/12 12:25:11;;;;;;;7.47;3.00;;;19.50;99.90;;;;;;4849109;29;20067;-84
2023/08/12 12:27:38;;;;;;;7.50;3.00;;;19.40;99.90;;;;;;4862418;29;20053;-83
2023/08/12 12:30:05;;;;;;;5.55;2.92;;;19.50;99.90;;;;;;4877479;29;20053;-82
2023/08/12 12:32:31;;;;;;;7.22;3.03;;;19.50;99.90;;;;;;4879224;29;20045;-81
2023/08/12 12:34:57;;;;;;;8.68;3.60;;;19.50;99.90;;;;;;4877630;29;20048;-80
2023/08/12 12:37:23;;;;;;;8.40;3.08;;;19.60;99.90;;;;;;4878414;29;20052;-83